sensor_id;sensor_type;location;lat;lon;timestamp;P1;durP1;ratioP1;P2;durP2;ratioP2
37379;SDS011;23252;-33.992;18.480;2023-05-17T00:02:11;14.13;;;6.93;;
37379;SDS011;23252;-33.992;18.480;2023-05-17T00:04:38;18.27;;;7.77;;
37379;SDS011;23252;-33.992;18.480;2023-05-17T04:16:07;33.33;;;6.95;;
37379;SDS011;23252;-33.992;18.480;2023-05-17T04:18:35;30.13;;;7.72;;
37379;SDS011;23252;-33.992;18.480;2023-05-17T04:21:03;30.30;;;7.57;;
37379;SDS011;23252;-33.992;18.480;2023-05-17T04:23:32;25.63;;;7.07;;
37379;SDS011;23252;-33.992;18.480;2023-05-17T04:26:02;30.55;;;7.75;;
37379;SDS011;23252;-33.992;18.480;2023-05-17T04:28:31;32.08;;;7.35;;
37379;SDS011;23252;-33.992;18.480;2023-05-17T04:31:05;33.40;;;10.20;;
37379;SDS011;23252;-33.992;18.480;2023-05-17T04:33:35;27.23;;;7.03;;
37379;SDS011;23252;-33.992;18.480;2023-05-17T04:36:02;22.75;;;6.57;;
37379;SDS011;23252;-33.992;18.480;2023-05-17T04:38:29;27.40;;;7.30;;
37379;SDS011;23252;-33.992;18.480;2023-05-17T04:41:02;24.20;;;5.43;;
37379;SDS011;23252;-33.992;18.480;2023-05-17T04:43:29;21.50;;;7.00;;
37379;SDS011;23252;-33.992;18.480;2023-05-17T04:45:57;27.05;;;7.35;;
37379;SDS011;23252;-33.992;18.480;2023-05-17T04:48:30;28.85;;;7.50;;
37379;SDS011;23252;-33.992;18.480;2023-05-17T04:51:00;27.77;;;7.65;;
37379;SDS011;23252;-33.992;18.480;2023-05-17T04:53:31;28.27;;;6.40;;
37379;SDS011;23252;-33.992;18.480;2023-05-17T04:55:58;34.10;;;7.80;;
37379;SDS011;23252;-33.992;18.480;2023-05-17T04:58:25;23.45;;;6.75;;
37379;SDS011;23252;-33.992;18.480;2023-05-17T05:00:51;21.70;;;5.83;;
37379;SDS011;23252;-33.992;18.480;2023-05-17T05:03:18;19.50;;;6.05;;
37379;SDS011;23252;-33.992;18.480;2023-05-17T05:05:45;19.40;;;5.20;;
37379;SDS011;23252;-33.992;18.480;2023-05-17T05:08:12;25.77;;;7.23;;
37379;SDS011;23252;-33.992;18.480;2023-05-17T05:10:38;25.17;;;6.33;;
37379;SDS011;23252;-33.992;18.480;2023-05-17T05:13:05;18.67;;;6.43;;
37379;SDS011;23252;-33.992;18.480;2023-05-17T05:15:31;23.60;;;6.85;;
37379;SDS011;23252;-33.992;18.480;2023-05-17T05:17:58;20.33;;;6.07;;
37379;SDS011;23252;-33.992;18.480;2023-05-17T05:20:24;19.80;;;6.00;;
37379;SDS011;23252;-33.992;18.480;2023-05-17T05:22:51;17.77;;;5.33;;
37379;SDS011;23252;-33.992;18.480;2023-05-17T05:25:17;16.55;;;4.80;;
37379;SDS011;23252;-33.992;18.480;2023-05-17T05:27:44;17.00;;;4.33;;
37379;SDS011;23252;-33.992;18.480;2023-05-17T05:30:10;11.15;;;2.83;;
37379;SDS011;23252;-33.992;18.480;2023-05-17T05:32:46;17.33;;;5.43;;
37379;SDS011;23252;-33.992;18.480;2023-05-17T05:35:16;21.38;;;6.10;;
37379;SDS011;23252;-33.992;18.480;2023-05-17T05:37:43;27.92;;;7.00;;
37379;SDS011;23252;-33.992;18.480;2023-05-17T05:40:13;22.60;;;7.00;;
37379;SDS011;23252;-33.992;18.480;2023-05-17T05:42:39;26.50;;;8.77;;
37379;SDS011;23252;-33.992;18.480;2023-05-17T05:45:06;29.00;;;9.20;;
37379;SDS011;23252;-33.992;18.480;2023-05-17T05:47:34;32.13;;;9.60;;
37379;SDS011;23252;-33.992;18.480;2023-05-17T05:50:01;32.33;;;9.67;;
37379;SDS011;23252;-33.992;18.480;2023-05-17T05:55:25;26.58;;;9.05;;
37379;SDS011;23252;-33.992;18.480;2023-05-17T05:57:52;34.47;;;10.63;;
37379;SDS011;23252;-33.992;18.480;2023-05-17T06:00:18;24.15;;;10.32;;
37379;SDS011;23252;-33.992;18.480;2023-05-17T06:02:45;27.08;;;11.18;;
37379;SDS011;23252;-33.992;18.480;2023-05-17T06:05:11;27.90;;;11.82;;
37379;SDS011;23252;-33.992;18.480;2023-05-17T06:07:38;29.87;;;11.27;;
37379;SDS011;23252;-33.992;18.480;2023-05-17T06:10:05;25.73;;;11.35;;
37379;SDS011;23252;-33.992;18.480;2023-05-17T06:12:31;24.05;;;10.75;;
37379;SDS011;23252;-33.992;18.480;2023-05-17T06:14:58;29.23;;;12.02;;
37379;SDS011;23252;-33.992;18.480;2023-05-17T06:17:24;21.60;;;11.63;;
37379;SDS011;23252;-33.992;18.480;2023-05-17T06:19:51;21.63;;;12.03;;
37379;SDS011;23252;-33.992;18.480;2023-05-17T06:22:17;20.10;;;10.80;;
37379;SDS011;23252;-33.992;18.480;2023-05-17T06:24:44;24.83;;;12.18;;
37379;SDS011;23252;-33.992;18.480;2023-05-17T06:27:10;20.17;;;11.40;;
37379;SDS011;23252;-33.992;18.480;2023-05-17T06:29:37;24.13;;;11.97;;
37379;SDS011;23252;-33.992;18.480;2023-05-17T06:32:03;30.63;;;13.55;;
37379;SDS011;23252;-33.992;18.480;2023-05-17T06:34:33;33.30;;;14.00;;
37379;SDS011;23252;-33.992;18.480;2023-05-17T06:37:00;34.15;;;13.90;;
37379;SDS011;23252;-33.992;18.480;2023-05-17T06:39:26;35.67;;;14.38;;
37379;SDS011;23252;-33.992;18.480;2023-05-17T06:41:53;34.47;;;12.27;;
37379;SDS011;23252;-33.992;18.480;2023-05-17T06:44:19;28.52;;;11.23;;
37379;SDS011;23252;-33.992;18.480;2023-05-17T06:46:46;27.00;;;10.35;;
37379;SDS011;23252;-33.992;18.480;2023-05-17T06:49:12;24.80;;;10.77;;
37379;SDS011;23252;-33.992;18.480;2023-05-17T06:51:39;28.70;;;12.27;;
37379;SDS011;23252;-33.992;18.480;2023-05-17T06:54:05;29.25;;;11.27;;
37379;SDS011;23252;-33.992;18.480;2023-05-17T06:56:32;34.97;;;13.52;;
37379;SDS011;23252;-33.992;18.480;2023-05-17T06:58:58;38.80;;;15.63;;
37379;SDS011;23252;-33.992;18.480;2023-05-17T07:01:25;43.33;;;15.43;;
37379;SDS011;23252;-33.992;18.480;2023-05-17T07:03:52;34.83;;;14.27;;
37379;SDS011;23252;-33.992;18.480;2023-05-17T07:06:18;40.05;;;15.63;;
37379;SDS011;23252;-33.992;18.480;2023-05-17T07:08:45;41.25;;;14.50;;
37379;SDS011;23252;-33.992;18.480;2023-05-17T07:11:12;31.80;;;14.30;;
37379;SDS011;23252;-33.992;18.480;2023-05-17T07:13:41;31.85;;;13.27;;
37379;SDS011;23252;-33.992;18.480;2023-05-17T07:16:08;28.35;;;11.57;;
37379;SDS011;23252;-33.992;18.480;2023-05-17T07:18:34;25.50;;;11.33;;
37379;SDS011;23252;-33.992;18.480;2023-05-17T07:21:01;23.77;;;10.83;;
37379;SDS011;23252;-33.992;18.480;2023-05-17T07:23:27;24.87;;;10.87;;
37379;SDS011;23252;-33.992;18.480;2023-05-17T07:25:54;20.23;;;9.17;;
37379;SDS011;23252;-33.992;18.480;2023-05-17T07:28:20;20.00;;;9.13;;
37379;SDS011;23252;-33.992;18.480;2023-05-17T07:30:47;17.00;;;8.82;;
37379;SDS011;23252;-33.992;18.480;2023-05-17T07:33:16;23.15;;;10.40;;
37379;SDS011;23252;-33.992;18.480;2023-05-17T07:35:43;19.98;;;10.35;;
37379;SDS011;23252;-33.992;18.480;2023-05-17T07:38:19;24.75;;;10.75;;
37379;SDS011;23252;-33.992;18.480;2023-05-17T07:40:45;23.42;;;11.05;;
37379;SDS011;23252;-33.992;18.480;2023-05-17T07:43:12;16.53;;;7.40;;
37379;SDS011;23252;-33.992;18.480;2023-05-17T07:45:38;17.73;;;7.80;;
37379;SDS011;23252;-33.992;18.480;2023-05-17T07:48:05;14.33;;;7.57;;
37379;SDS011;23252;-33.992;18.480;2023-05-17T07:50:31;16.13;;;8.53;;
37379;SDS011;23252;-33.992;18.480;2023-05-17T07:52:58;14.57;;;6.87;;
37379;SDS011;23252;-33.992;18.480;2023-05-17T07:55:24;13.93;;;7.47;;
37379;SDS011;23252;-33.992;18.480;2023-05-17T07:57:51;13.38;;;6.88;;
37379;SDS011;23252;-33.992;18.480;2023-05-17T08:00:18;16.45;;;8.88;;
37379;SDS011;23252;-33.992;18.480;2023-05-17T08:02:45;16.77;;;9.00;;
37379;SDS011;23252;-33.992;18.480;2023-05-17T08:05:14;15.47;;;8.77;;
37379;SDS011;23252;-33.992;18.480;2023-05-17T08:07:46;19.60;;;11.15;;
37379;SDS011;23252;-33.992;18.480;2023-05-17T08:10:12;19.67;;;11.20;;
37379;SDS011;23252;-33.992;18.480;2023-05-17T08:12:41;20.17;;;10.70;;
37379;SDS011;23252;-33.992;18.480;2023-05-17T08:15:07;23.47;;;11.13;;
37379;SDS011;23252;-33.992;18.480;2023-05-17T08:17:37;14.95;;;9.45;;
37379;SDS011;23252;-33.992;18.480;2023-05-17T08:20:04;18.87;;;11.67;;
37379;SDS011;23252;-33.992;18.480;2023-05-17T08:22:34;17.88;;;10.10;;
37379;SDS011;23252;-33.992;18.480;2023-05-17T08:25:12;16.27;;;10.52;;
37379;SDS011;23252;-33.992;18.480;2023-05-17T08:27:41;21.63;;;9.55;;
37379;SDS011;23252;-33.992;18.480;2023-05-17T08:30:10;17.58;;;9.52;;
37379;SDS011;23252;-33.992;18.480;2023-05-17T08:32:37;15.40;;;8.63;;
37379;SDS011;23252;-33.992;18.480;2023-05-17T08:37:58;20.42;;;10.93;;
37379;SDS011;23252;-33.992;18.480;2023-05-17T08:40:26;21.08;;;11.50;;
37379;SDS011;23252;-33.992;18.480;2023-05-17T08:43:06;19.83;;;10.70;;
37379;SDS011;23252;-33.992;18.480;2023-05-17T08:45:37;21.70;;;10.13;;
37379;SDS011;23252;-33.992;18.480;2023-05-17T08:48:04;19.48;;;11.50;;
37379;SDS011;23252;-33.992;18.480;2023-05-17T08:50:31;20.50;;;11.45;;
37379;SDS011;23252;-33.992;18.480;2023-05-17T08:53:00;17.92;;;11.27;;
37379;SDS011;23252;-33.992;18.480;2023-05-17T08:55:27;20.85;;;12.48;;
37379;SDS011;23252;-33.992;18.480;2023-05-17T08:57:55;20.98;;;11.43;;
37379;SDS011;23252;-33.992;18.480;2023-05-17T09:00:22;24.50;;;12.80;;
37379;SDS011;23252;-33.992;18.480;2023-05-17T09:02:51;21.63;;;11.70;;
37379;SDS011;23252;-33.992;18.480;2023-05-17T09:05:18;21.85;;;11.00;;
37379;SDS011;23252;-33.992;18.480;2023-05-17T09:07:44;22.07;;;10.07;;
37379;SDS011;23252;-33.992;18.480;2023-05-17T09:10:13;17.27;;;8.63;;
37379;SDS011;23252;-33.992;18.480;2023-05-17T09:12:40;15.63;;;8.00;;
37379;SDS011;23252;-33.992;18.480;2023-05-17T09:15:19;13.13;;;6.43;;
37379;SDS011;23252;-33.992;18.480;2023-05-17T09:17:54;14.98;;;6.93;;
37379;SDS011;23252;-33.992;18.480;2023-05-17T09:20:22;13.00;;;7.05;;
37379;SDS011;23252;-33.992;18.480;2023-05-17T09:22:49;13.73;;;5.97;;
37379;SDS011;23252;-33.992;18.480;2023-05-17T09:25:20;11.10;;;5.45;;
37379;SDS011;23252;-33.992;18.480;2023-05-17T09:27:52;10.80;;;4.88;;
37379;SDS011;23252;-33.992;18.480;2023-05-17T09:30:25;9.75;;;6.18;;
37379;SDS011;23252;-33.992;18.480;2023-05-17T09:32:53;8.70;;;4.75;;
37379;SDS011;23252;-33.992;18.480;2023-05-17T09:35:26;8.77;;;4.50;;
37379;SDS011;23252;-33.992;18.480;2023-05-17T09:37:56;8.30;;;2.88;;
37379;SDS011;23252;-33.992;18.480;2023-05-17T09:40:30;9.40;;;2.65;;
37379;SDS011;23252;-33.992;18.480;2023-05-17T09:42:59;7.28;;;2.95;;
37379;SDS011;23252;-33.992;18.480;2023-05-17T09:45:26;5.43;;;2.97;;
37379;SDS011;23252;-33.992;18.480;2023-05-17T09:47:52;4.70;;;2.67;;
37379;SDS011;23252;-33.992;18.480;2023-05-17T09:50:20;7.93;;;3.10;;
37379;SDS011;23252;-33.992;18.480;2023-05-17T09:52:47;7.15;;;3.05;;
37379;SDS011;23252;-33.992;18.480;2023-05-17T09:55:13;8.40;;;3.00;;
37379;SDS011;23252;-33.992;18.480;2023-05-17T09:57:40;9.73;;;2.80;;
37379;SDS011;23252;-33.992;18.480;2023-05-17T10:00:07;7.88;;;3.33;;
37379;SDS011;23252;-33.992;18.480;2023-05-17T10:02:37;9.15;;;2.83;;
37379;SDS011;23252;-33.992;18.480;2023-05-17T10:05:09;6.10;;;2.33;;
37379;SDS011;23252;-33.992;18.480;2023-05-17T10:07:40;5.65;;;2.33;;
37379;SDS011;23252;-33.992;18.480;2023-05-17T10:10:07;7.13;;;2.72;;
37379;SDS011;23252;-33.992;18.480;2023-05-17T10:12:34;11.88;;;2.67;;
37379;SDS011;23252;-33.992;18.480;2023-05-17T10:15:03;12.93;;;2.50;;
37379;SDS011;23252;-33.992;18.480;2023-05-17T10:17:31;7.88;;;2.40;;
37379;SDS011;23252;-33.992;18.480;2023-05-17T10:19:59;7.05;;;2.13;;
37379;SDS011;23252;-33.992;18.480;2023-05-17T10:22:35;10.07;;;1.85;;
37379;SDS011;23252;-33.992;18.480;2023-05-17T10:25:02;4.93;;;2.30;;
37379;SDS011;23252;-33.992;18.480;2023-05-17T10:29:55;4.97;;;2.30;;
37379;SDS011;23252;-33.992;18.480;2023-05-17T10:32:22;6.85;;;1.85;;
37379;SDS011;23252;-33.992;18.480;2023-05-17T10:34:51;6.32;;;1.90;;
37379;SDS011;23252;-33.992;18.480;2023-05-17T10:37:19;7.63;;;1.95;;
37379;SDS011;23252;-33.992;18.480;2023-05-17T10:39:47;5.82;;;2.30;;
37379;SDS011;23252;-33.992;18.480;2023-05-17T10:42:16;6.25;;;1.92;;
37379;SDS011;23252;-33.992;18.480;2023-05-17T10:44:44;4.57;;;1.73;;
37379;SDS011;23252;-33.992;18.480;2023-05-17T10:47:10;5.50;;;1.45;;
37379;SDS011;23252;-33.992;18.480;2023-05-17T10:49:38;6.82;;;1.67;;
37379;SDS011;23252;-33.992;18.480;2023-05-17T10:52:16;3.85;;;1.33;;
37379;SDS011;23252;-33.992;18.480;2023-05-17T10:54:47;8.38;;;1.88;;
37379;SDS011;23252;-33.992;18.480;2023-05-17T10:57:21;5.55;;;1.70;;
37379;SDS011;23252;-33.992;18.480;2023-05-17T10:59:59;3.50;;;1.30;;
37379;SDS011;23252;-33.992;18.480;2023-05-17T11:02:29;3.42;;;1.45;;
37379;SDS011;23252;-33.992;18.480;2023-05-17T11:07:27;6.22;;;1.58;;
37379;SDS011;23252;-33.992;18.480;2023-05-17T11:12:37;6.97;;;1.35;;
37379;SDS011;23252;-33.992;18.480;2023-05-17T11:23:02;3.92;;;0.93;;
37379;SDS011;23252;-33.992;18.480;2023-05-17T11:25:40;3.38;;;0.90;;
37379;SDS011;23252;-33.992;18.480;2023-05-17T11:28:07;2.53;;;0.80;;
37379;SDS011;23252;-33.992;18.480;2023-05-17T11:30:42;2.10;;;0.90;;
37379;SDS011;23252;-33.992;18.480;2023-05-17T11:33:15;4.32;;;0.82;;
37379;SDS011;23252;-33.992;18.480;2023-05-17T11:35:42;6.32;;;1.15;;
37379;SDS011;23252;-33.992;18.480;2023-05-17T11:40:54;4.07;;;0.90;;
37379;SDS011;23252;-33.992;18.480;2023-05-17T11:43:25;3.83;;;1.20;;
37379;SDS011;23252;-33.992;18.480;2023-05-17T11:45:55;4.93;;;1.20;;
37379;SDS011;23252;-33.992;18.480;2023-05-17T11:48:24;4.68;;;1.83;;
37379;SDS011;23252;-33.992;18.480;2023-05-17T11:50:52;2.30;;;1.50;;
37379;SDS011;23252;-33.992;18.480;2023-05-17T11:53:21;3.30;;;1.35;;
37379;SDS011;23252;-33.992;18.480;2023-05-17T11:55:49;3.33;;;1.25;;
37379;SDS011;23252;-33.992;18.480;2023-05-17T11:58:23;4.40;;;1.17;;
37379;SDS011;23252;-33.992;18.480;2023-05-17T12:00:51;3.95;;;1.30;;
37379;SDS011;23252;-33.992;18.480;2023-05-17T12:03:28;6.75;;;0.95;;
37379;SDS011;23252;-33.992;18.480;2023-05-17T12:08:29;3.35;;;0.90;;
37379;SDS011;23252;-33.992;18.480;2023-05-17T12:10:58;2.63;;;0.70;;
37379;SDS011;23252;-33.992;18.480;2023-05-17T12:13:29;2.95;;;0.93;;
37379;SDS011;23252;-33.992;18.480;2023-05-17T12:15:57;4.57;;;1.00;;
37379;SDS011;23252;-33.992;18.480;2023-05-17T12:23:50;3.78;;;1.45;;
37379;SDS011;23252;-33.992;18.480;2023-05-17T12:26:20;3.10;;;0.80;;
37379;SDS011;23252;-33.992;18.480;2023-05-17T12:28:57;2.25;;;1.20;;
37379;SDS011;23252;-33.992;18.480;2023-05-17T12:31:25;2.42;;;0.60;;
37379;SDS011;23252;-33.992;18.480;2023-05-17T12:33:58;3.47;;;0.80;;
37379;SDS011;23252;-33.992;18.480;2023-05-17T12:36:27;1.65;;;0.50;;
37379;SDS011;23252;-33.992;18.480;2023-05-17T12:38:54;1.75;;;0.50;;
37379;SDS011;23252;-33.992;18.480;2023-05-17T12:41:21;2.25;;;0.60;;
37379;SDS011;23252;-33.992;18.480;2023-05-17T12:43:50;1.45;;;0.40;;
37379;SDS011;23252;-33.992;18.480;2023-05-17T12:46:18;1.65;;;0.80;;
37379;SDS011;23252;-33.992;18.480;2023-05-17T12:48:48;2.83;;;0.90;;
37379;SDS011;23252;-33.992;18.480;2023-05-17T12:51:19;3.33;;;0.98;;
37379;SDS011;23252;-33.992;18.480;2023-05-17T12:53:50;2.78;;;1.02;;
37379;SDS011;23252;-33.992;18.480;2023-05-17T12:56:18;1.58;;;0.70;;
37379;SDS011;23252;-33.992;18.480;2023-05-17T13:01:38;5.00;;;1.33;;
37379;SDS011;23252;-33.992;18.480;2023-05-17T13:04:10;4.43;;;1.50;;
37379;SDS011;23252;-33.992;18.480;2023-05-17T13:06:43;7.43;;;2.20;;
37379;SDS011;23252;-33.992;18.480;2023-05-17T13:09:22;3.35;;;1.20;;
37379;SDS011;23252;-33.992;18.480;2023-05-17T13:11:56;4.25;;;0.88;;
37379;SDS011;23252;-33.992;18.480;2023-05-17T13:14:38;3.75;;;0.90;;
37379;SDS011;23252;-33.992;18.480;2023-05-17T13:17:09;2.15;;;0.98;;
37379;SDS011;23252;-33.992;18.480;2023-05-17T13:19:37;4.03;;;1.10;;
37379;SDS011;23252;-33.992;18.480;2023-05-17T13:22:04;3.03;;;1.30;;
37379;SDS011;23252;-33.992;18.480;2023-05-17T13:27:04;2.50;;;1.25;;
37379;SDS011;23252;-33.992;18.480;2023-05-17T13:29:32;2.22;;;1.35;;
37379;SDS011;23252;-33.992;18.480;2023-05-17T13:32:03;4.07;;;1.20;;
37379;SDS011;23252;-33.992;18.480;2023-05-17T13:34:31;1.52;;;1.13;;
37379;SDS011;23252;-33.992;18.480;2023-05-17T13:36:57;2.80;;;1.10;;
37379;SDS011;23252;-33.992;18.480;2023-05-17T13:39:24;5.00;;;1.13;;
37379;SDS011;23252;-33.992;18.480;2023-05-17T13:41:50;4.30;;;0.90;;
37379;SDS011;23252;-33.992;18.480;2023-05-17T13:44:17;0.70;;;0.65;;
37379;SDS011;23252;-33.992;18.480;2023-05-17T13:46:43;2.17;;;0.83;;
37379;SDS011;23252;-33.992;18.480;2023-05-17T13:49:10;1.97;;;1.07;;
37379;SDS011;23252;-33.992;18.480;2023-05-17T13:51:37;1.73;;;1.13;;
37379;SDS011;23252;-33.992;18.480;2023-05-17T13:54:04;3.35;;;1.63;;
37379;SDS011;23252;-33.992;18.480;2023-05-17T13:56:31;3.58;;;1.67;;
37379;SDS011;23252;-33.992;18.480;2023-05-17T13:58:58;7.35;;;2.28;;
37379;SDS011;23252;-33.992;18.480;2023-05-17T14:01:25;6.43;;;1.80;;
37379;SDS011;23252;-33.992;18.480;2023-05-17T14:03:51;4.75;;;2.08;;
37379;SDS011;23252;-33.992;18.480;2023-05-17T14:06:19;7.13;;;2.28;;
37379;SDS011;23252;-33.992;18.480;2023-05-17T14:08:46;5.25;;;2.55;;
37379;SDS011;23252;-33.992;18.480;2023-05-17T14:11:12;4.30;;;2.00;;
37379;SDS011;23252;-33.992;18.480;2023-05-17T14:13:39;3.88;;;1.98;;
37379;SDS011;23252;-33.992;18.480;2023-05-17T14:16:06;5.88;;;2.58;;
37379;SDS011;23252;-33.992;18.480;2023-05-17T14:18:33;4.47;;;1.83;;
37379;SDS011;23252;-33.992;18.480;2023-05-17T14:20:59;5.68;;;2.30;;
37379;SDS011;23252;-33.992;18.480;2023-05-17T14:23:27;5.82;;;2.20;;
37379;SDS011;23252;-33.992;18.480;2023-05-17T14:25:54;3.80;;;1.90;;
37379;SDS011;23252;-33.992;18.480;2023-05-17T14:28:21;5.05;;;2.80;;
37379;SDS011;23252;-33.992;18.480;2023-05-17T14:30:48;8.45;;;2.45;;
37379;SDS011;23252;-33.992;18.480;2023-05-17T14:35:42;5.40;;;2.20;;
37379;SDS011;23252;-33.992;18.480;2023-05-17T14:38:09;6.60;;;2.60;;
37379;SDS011;23252;-33.992;18.480;2023-05-17T14:40:35;7.80;;;2.37;;
37379;SDS011;23252;-33.992;18.480;2023-05-17T14:43:02;5.55;;;2.67;;
37379;SDS011;23252;-33.992;18.480;2023-05-17T14:45:29;5.78;;;2.85;;
37379;SDS011;23252;-33.992;18.480;2023-05-17T14:47:55;9.03;;;3.40;;
37379;SDS011;23252;-33.992;18.480;2023-05-17T14:50:22;7.80;;;3.03;;
37379;SDS011;23252;-33.992;18.480;2023-05-17T14:52:48;5.57;;;3.47;;
37379;SDS011;23252;-33.992;18.480;2023-05-17T14:55:15;6.10;;;3.08;;
37379;SDS011;23252;-33.992;18.480;2023-05-17T15:00:09;8.27;;;2.70;;
37379;SDS011;23252;-33.992;18.480;2023-05-17T15:05:02;8.07;;;2.33;;
37379;SDS011;23252;-33.992;18.480;2023-05-17T15:07:29;8.00;;;2.10;;
37379;SDS011;23252;-33.992;18.480;2023-05-17T15:09:57;18.67;;;2.63;;
37379;SDS011;23252;-33.992;18.480;2023-05-17T15:12:24;9.20;;;2.03;;
37379;SDS011;23252;-33.992;18.480;2023-05-17T15:14:50;10.57;;;2.40;;
37379;SDS011;23252;-33.992;18.480;2023-05-17T15:17:17;10.77;;;2.60;;
37379;SDS011;23252;-33.992;18.480;2023-05-17T15:19:43;13.10;;;2.40;;
37379;SDS011;23252;-33.992;18.480;2023-05-17T15:22:10;12.05;;;2.67;;
37379;SDS011;23252;-33.992;18.480;2023-05-17T15:24:37;16.58;;;2.17;;
37379;SDS011;23252;-33.992;18.480;2023-05-17T15:27:04;17.38;;;2.30;;
37379;SDS011;23252;-33.992;18.480;2023-05-17T15:29:32;15.52;;;2.22;;
37379;SDS011;23252;-33.992;18.480;2023-05-17T15:31:58;17.13;;;3.08;;
37379;SDS011;23252;-33.992;18.480;2023-05-17T15:34:25;15.87;;;2.70;;
37379;SDS011;23252;-33.992;18.480;2023-05-17T15:36:53;19.33;;;3.03;;
37379;SDS011;23252;-33.992;18.480;2023-05-17T15:39:21;19.63;;;3.78;;
37379;SDS011;23252;-33.992;18.480;2023-05-17T15:41:47;23.17;;;3.55;;
37379;SDS011;23252;-33.992;18.480;2023-05-17T15:44:14;19.95;;;3.13;;
37379;SDS011;23252;-33.992;18.480;2023-05-17T15:46:41;19.27;;;2.60;;
37379;SDS011;23252;-33.992;18.480;2023-05-17T15:49:07;27.83;;;3.42;;
37379;SDS011;23252;-33.992;18.480;2023-05-17T15:51:34;18.38;;;3.05;;
37379;SDS011;23252;-33.992;18.480;2023-05-17T15:54:00;25.73;;;3.38;;
37379;SDS011;23252;-33.992;18.480;2023-05-17T15:56:27;14.77;;;2.90;;
37379;SDS011;23252;-33.992;18.480;2023-05-17T15:58:54;20.93;;;3.20;;
37379;SDS011;23252;-33.992;18.480;2023-05-17T16:01:21;24.88;;;5.03;;
37379;SDS011;23252;-33.992;18.480;2023-05-17T16:03:47;23.20;;;4.17;;
37379;SDS011;23252;-33.992;18.480;2023-05-17T16:06:14;20.42;;;4.43;;
37379;SDS011;23252;-33.992;18.480;2023-05-17T16:08:41;19.77;;;4.40;;
37379;SDS011;23252;-33.992;18.480;2023-05-17T16:11:08;19.60;;;5.25;;
37379;SDS011;23252;-33.992;18.480;2023-05-17T16:13:34;25.73;;;4.50;;
37379;SDS011;23252;-33.992;18.480;2023-05-17T16:16:01;23.33;;;4.40;;
37379;SDS011;23252;-33.992;18.480;2023-05-17T16:18:27;24.60;;;5.93;;
37379;SDS011;23252;-33.992;18.480;2023-05-17T16:23:22;17.73;;;4.07;;
37379;SDS011;23252;-33.992;18.480;2023-05-17T16:25:48;25.33;;;4.80;;
37379;SDS011;23252;-33.992;18.480;2023-05-17T16:28:15;16.50;;;3.45;;
37379;SDS011;23252;-33.992;18.480;2023-05-17T16:30:46;19.60;;;4.28;;
37379;SDS011;23252;-33.992;18.480;2023-05-17T16:33:13;25.05;;;4.22;;
37379;SDS011;23252;-33.992;18.480;2023-05-17T16:35:40;24.95;;;4.45;;
37379;SDS011;23252;-33.992;18.480;2023-05-17T16:38:07;27.67;;;4.97;;
37379;SDS011;23252;-33.992;18.480;2023-05-17T16:40:34;25.20;;;5.13;;
37379;SDS011;23252;-33.992;18.480;2023-05-17T16:43:00;22.40;;;5.13;;
37379;SDS011;23252;-33.992;18.480;2023-05-17T16:45:27;15.63;;;3.40;;
37379;SDS011;23252;-33.992;18.480;2023-05-17T16:47:54;26.03;;;3.07;;
37379;SDS011;23252;-33.992;18.480;2023-05-17T16:50:20;19.73;;;3.60;;
37379;SDS011;23252;-33.992;18.480;2023-05-17T16:52:47;18.60;;;3.03;;
37379;SDS011;23252;-33.992;18.480;2023-05-17T16:55:13;18.33;;;4.03;;
37379;SDS011;23252;-33.992;18.480;2023-05-17T16:57:40;20.15;;;4.43;;
37379;SDS011;23252;-33.992;18.480;2023-05-17T17:00:08;18.75;;;3.45;;
37379;SDS011;23252;-33.992;18.480;2023-05-17T17:02:36;13.20;;;3.97;;
37379;SDS011;23252;-33.992;18.480;2023-05-17T17:05:02;18.70;;;3.53;;
37379;SDS011;23252;-33.992;18.480;2023-05-17T17:07:29;24.88;;;3.53;;
37379;SDS011;23252;-33.992;18.480;2023-05-17T17:09:56;17.40;;;3.47;;
37379;SDS011;23252;-33.992;18.480;2023-05-17T17:12:22;15.40;;;3.83;;
37379;SDS011;23252;-33.992;18.480;2023-05-17T17:17:16;22.40;;;5.03;;
37379;SDS011;23252;-33.992;18.480;2023-05-17T17:19:42;18.38;;;3.38;;
37379;SDS011;23252;-33.992;18.480;2023-05-17T17:22:09;20.27;;;4.27;;
37379;SDS011;23252;-33.992;18.480;2023-05-17T17:24:38;19.38;;;5.43;;
37379;SDS011;23252;-33.992;18.480;2023-05-17T17:27:05;25.63;;;5.28;;
37379;SDS011;23252;-33.992;18.480;2023-05-17T17:29:31;15.98;;;3.67;;
37379;SDS011;23252;-33.992;18.480;2023-05-17T17:31:58;22.95;;;4.10;;
37379;SDS011;23252;-33.992;18.480;2023-05-17T17:34:25;15.98;;;4.75;;
37379;SDS011;23252;-33.992;18.480;2023-05-17T17:36:52;19.45;;;4.25;;
37379;SDS011;23252;-33.992;18.480;2023-05-17T17:39:19;21.08;;;4.38;;
37379;SDS011;23252;-33.992;18.480;2023-05-17T17:41:45;18.37;;;4.17;;
37379;SDS011;23252;-33.992;18.480;2023-05-17T17:44:12;18.20;;;4.90;;
37379;SDS011;23252;-33.992;18.480;2023-05-17T17:46:38;21.67;;;5.10;;
37379;SDS011;23252;-33.992;18.480;2023-05-17T17:49:05;21.37;;;3.97;;
37379;SDS011;23252;-33.992;18.480;2023-05-17T17:51:31;14.13;;;3.93;;
37379;SDS011;23252;-33.992;18.480;2023-05-17T17:53:58;27.83;;;5.37;;
37379;SDS011;23252;-33.992;18.480;2023-05-17T17:56:24;25.05;;;5.25;;
37379;SDS011;23252;-33.992;18.480;2023-05-17T17:58:51;28.20;;;6.82;;
37379;SDS011;23252;-33.992;18.480;2023-05-17T18:01:20;28.98;;;6.13;;
37379;SDS011;23252;-33.992;18.480;2023-05-17T18:03:47;20.60;;;4.15;;
37379;SDS011;23252;-33.992;18.480;2023-05-17T18:06:14;20.13;;;4.53;;
37379;SDS011;23252;-33.992;18.480;2023-05-17T18:08:40;23.80;;;4.97;;
37379;SDS011;23252;-33.992;18.480;2023-05-17T18:11:07;21.90;;;3.85;;
37379;SDS011;23252;-33.992;18.480;2023-05-17T18:13:34;19.92;;;3.70;;
37379;SDS011;23252;-33.992;18.480;2023-05-17T20:16:47;25.35;;;4.80;;
37379;SDS011;23252;-33.992;18.480;2023-05-17T20:19:14;14.70;;;3.20;;
37379;SDS011;23252;-33.992;18.480;2023-05-17T20:21:40;18.90;;;3.10;;
37379;SDS011;23252;-33.992;18.480;2023-05-17T20:24:07;17.52;;;3.72;;
37379;SDS011;23252;-33.992;18.480;2023-05-17T20:26:34;16.65;;;3.30;;
37379;SDS011;23252;-33.992;18.480;2023-05-17T20:29:05;17.92;;;3.35;;
37379;SDS011;23252;-33.992;18.480;2023-05-17T20:31:32;26.98;;;3.88;;
37379;SDS011;23252;-33.992;18.480;2023-05-17T20:34:00;28.85;;;3.42;;
37379;SDS011;23252;-33.992;18.480;2023-05-17T20:36:27;19.77;;;2.80;;
37379;SDS011;23252;-33.992;18.480;2023-05-17T20:38:54;18.17;;;3.08;;
37379;SDS011;23252;-33.992;18.480;2023-05-17T20:41:20;14.95;;;2.75;;
37379;SDS011;23252;-33.992;18.480;2023-05-17T20:43:47;20.80;;;3.20;;
37379;SDS011;23252;-33.992;18.480;2023-05-17T20:46:16;19.52;;;3.30;;
37379;SDS011;23252;-33.992;18.480;2023-05-17T20:48:43;17.83;;;3.13;;
37379;SDS011;23252;-33.992;18.480;2023-05-17T20:51:11;15.82;;;3.42;;
37379;SDS011;23252;-33.992;18.480;2023-05-17T20:53:38;15.07;;;2.80;;
37379;SDS011;23252;-33.992;18.480;2023-05-17T20:56:05;19.48;;;3.05;;
37379;SDS011;23252;-33.992;18.480;2023-05-17T20:58:32;16.98;;;2.45;;
37379;SDS011;23252;-33.992;18.480;2023-05-17T21:00:58;19.73;;;3.17;;
37379;SDS011;23252;-33.992;18.480;2023-05-17T21:03:26;16.88;;;2.90;;
37379;SDS011;23252;-33.992;18.480;2023-05-17T21:08:19;21.45;;;2.47;;
37379;SDS011;23252;-33.992;18.480;2023-05-17T21:10:46;16.73;;;2.55;;
37379;SDS011;23252;-33.992;18.480;2023-05-17T21:13:13;12.43;;;2.35;;
37379;SDS011;23252;-33.992;18.480;2023-05-17T21:15:40;17.40;;;3.03;;
37379;SDS011;23252;-33.992;18.480;2023-05-17T21:18:08;24.87;;;3.60;;